Time;durP1;ratioP1;P1;durP2;ratioP2;P2;SDS_P1;SDS_P2;PMS_P1;PMS_P2;Temp;Humidity;BMP_temperature;BMP_pressure;BME280_temperature;BME280_humidity;BME280_pressure;Samples;Min_cycle;Max_cycle;Signal;HPM_P1;HPM_P2
2022/11/23 00:02:54;;;;;;;112.93;27.95;;;;;;;7.90;100.00;100253.63;10297187;28;20030;-70
2022/11/23 00:07:54;;;;;;;117.25;26.23;;;;;;;8.00;100.00;100261.47;10296195;28;20470;-69
2022/11/23 00:12:55;;;;;;;113.93;28.45;;;;;;;8.08;100.00;100287.16;10296501;28;20035;-70
2022/11/23 00:17:56;;;;;;;114.32;33.35;;;;;;;8.11;100.00;100276.28;10297400;28;20414;-70
2022/11/23 00:23:05;;;;;;;146.23;32.05;;;;;;;8.07;100.00;100259.03;10295511;28;20370;-69
2022/11/23 00:28:06;;;;;;;175.93;29.73;;;;;;;7.69;100.00;100205.53;10295773;28;20035;-70
2022/11/23 00:33:07;;;;;;;123.57;28.98;;;;;;;8.24;100.00;100319.88;10295881;28;20121;-70
2022/11/23 00:38:08;;;;;;;68.65;27.50;;;;;;;8.25;100.00;100302.16;10295849;28;20122;-70
2022/11/23 00:43:09;;;;;;;148.70;31.75;;;;;;;8.40;100.00;100311.22;10293269;28;20469;-70
2022/11/23 00:48:09;;;;;;;92.47;31.30;;;;;;;8.47;100.00;100337.13;10295880;28;20479;-69
2022/11/23 00:53:10;;;;;;;56.53;30.70;;;;;;;8.51;100.00;100344.59;10294234;28;20031;-70
2022/11/23 00:58:11;;;;;;;86.55;31.63;;;;;;;8.45;100.00;100351.31;10295650;28;20468;-69
2022/11/23 01:03:12;;;;;;;96.32;28.75;;;;;;;7.89;100.00;100267.81;10294927;28;20030;-70
2022/11/23 01:08:12;;;;;;;82.25;27.30;;;;;;;8.29;100.00;100332.66;10295237;28;20043;-69
2022/11/23 01:13:13;;;;;;;86.68;26.52;;;;;;;8.33;100.00;100364.94;10294982;28;20404;-69
2022/11/23 01:18:14;;;;;;;73.72;26.30;;;;;;;8.20;100.00;100368.78;10294738;28;20364;-70
2022/11/23 01:23:15;;;;;;;102.60;25.95;;;;;;;8.08;100.00;100354.13;10293943;28;20034;-70
2022/11/23 01:28:16;;;;;;;87.78;27.08;;;;;;;8.04;100.00;100373.91;10292513;28;20035;-69
2022/11/23 01:33:17;;;;;;;85.53;26.52;;;;;;;8.08;100.00;100393.00;10293457;28;20039;-69
2022/11/23 01:38:17;;;;;;;53.65;26.08;;;;;;;8.12;100.00;100403.13;10294039;28;20382;-69
2022/11/23 01:43:18;;;;;;;54.38;25.77;;;;;;;8.19;100.00;100408.63;10292185;28;20125;-70
2022/11/23 01:48:25;;;;;;;65.30;24.77;;;;;;;8.07;100.00;100391.31;10293244;28;20042;-69
2022/11/23 01:53:28;;;;;;;55.85;25.88;;;;;;;8.20;100.00;100429.66;10294044;28;20038;-70
2022/11/23 01:58:34;;;;;;;37.85;23.02;;;;;;;8.23;100.00;100437.31;10293148;28;20039;-70
2022/11/23 02:03:36;;;;;;;46.25;25.27;;;;;;;8.29;100.00;100445.63;10292397;28;20069;-69
2022/11/23 02:08:37;;;;;;;63.15;26.63;;;;;;;8.17;100.00;100437.91;10292274;28;20461;-69
2022/11/23 02:13:40;;;;;;;54.35;25.45;;;;;;;8.28;100.00;100457.19;10291222;28;20129;-70
2022/11/23 02:18:45;;;;;;;35.35;24.42;;;;;;;8.25;100.00;100434.50;10291843;28;20043;-69
2022/11/23 02:23:59;;;;;;;46.63;28.55;;;;;;;8.32;100.00;100455.91;10290645;28;20452;-69
2022/11/23 02:29:13;;;;;;;40.88;25.70;;;;;;;8.44;100.00;100500.56;10290239;28;20042;-69
2022/11/23 02:34:15;;;;;;;42.35;28.10;;;;;;;8.24;100.00;100486.59;10291918;28;20042;-69
2022/11/23 02:39:27;;;;;;;40.97;27.35;;;;;;;8.30;100.00;100518.75;10292011;28;20454;-69
2022/11/23 02:45:07;;;;;;;37.53;26.42;;;;;;;8.36;100.00;100510.22;10292082;28;20418;-70
2022/11/23 02:50:08;;;;;;;37.95;25.48;;;;;;;8.25;100.00;100498.00;10249785;28;20044;-69
2022/11/23 02:55:09;;;;;;;41.78;29.85;;;;;;;8.39;100.00;100528.47;10291267;28;20383;-69
2022/11/23 03:00:11;;;;;;;37.95;27.55;;;;;;;8.39;100.00;100541.72;10291212;28;20115;-69
2022/11/23 03:11:15;;;;;;;41.13;29.10;;;;;;;8.37;100.00;100543.63;10291603;28;20368;-70
2022/11/23 03:16:33;;;;;;;47.13;31.75;;;;;;;8.36;100.00;100556.03;10289876;28;20041;-70
2022/11/23 03:21:59;;;;;;;37.80;26.25;;;;;;;8.47;100.00;100578.88;10290985;28;20055;-70
2022/11/23 03:27:01;;;;;;;43.13;30.45;;;;;;;8.07;100.00;100518.31;10288825;28;20042;-70
2022/11/23 03:32:02;;;;;;;41.15;29.30;;;;;;;8.38;100.00;100595.59;10293484;28;20062;-70
2022/11/23 03:37:03;;;;;;;42.97;29.17;;;;;;;8.32;100.00;100604.97;10298757;28;20109;-70
2022/11/23 03:42:04;;;;;;;37.17;27.17;;;;;;;8.34;100.00;100607.44;10295236;28;20058;-70
2022/11/23 03:47:05;;;;;;;46.25;29.70;;;;;;;8.27;100.00;100601.09;10293655;28;20038;-70
2022/11/23 03:52:05;;;;;;;37.75;25.55;;;;;;;7.68;100.00;100511.38;10292248;28;20043;-70
2022/11/23 03:57:06;;;;;;;40.33;26.95;;;;;;;8.33;100.00;100616.38;10292507;28;20043;-70
2022/11/23 04:02:07;;;;;;;49.72;30.42;;;;;;;8.12;100.00;100588.34;10293901;28;20121;-71
2022/11/23 04:07:08;;;;;;;48.25;29.63;;;;;;;8.30;100.00;100620.16;10290413;28;20088;-70
2022/11/23 04:12:09;;;;;;;37.53;26.52;;;;;;;7.96;100.00;100556.41;10294356;28;20026;-70
2022/11/23 04:17:10;;;;;;;44.20;28.73;;;;;;;8.28;100.00;100608.03;10294177;28;20047;-69
2022/11/23 04:22:11;;;;;;;44.70;29.23;;;;;;;8.38;100.00;100624.72;10290930;28;20043;-69
2022/11/23 04:27:11;;;;;;;36.72;26.60;;;;;;;7.85;100.00;100546.81;10296132;28;20078;-69
2022/11/23 04:32:12;;;;;;;41.17;26.15;;;;;;;8.26;100.00;100613.50;10295364;28;20114;-69
2022/11/23 04:37:41;;;;;;;40.97;25.75;;;;;;;8.51;100.00;100645.59;10295401;28;20038;-69
2022/11/23 04:42:42;;;;;;;36.75;24.48;;;;;;;8.56;100.00;100648.63;10296336;28;20035;-69
2022/11/23 04:47:43;;;;;;;38.10;26.15;;;;;;;8.68;100.00;100664.16;10294995;28;20034;-69
2022/11/23 04:53:37;;;;;;;48.00;29.40;;;;;;;8.82;100.00;100669.94;10294410;28;20031;-69
2022/11/23 04:58:38;;;;;;;43.42;28.45;;;;;;;8.76;100.00;100657.28;10294297;28;20042;-68
2022/11/23 05:03:39;;;;;;;47.92;27.25;;;;;;;8.83;100.00;100651.25;10288132;28;20069;-68
2022/11/23 05:08:41;;;;;;;39.47;26.20;;;;;;;8.93;100.00;100679.50;10294178;28;20047;-69
2022/11/23 05:13:42;;;;;;;38.90;25.25;;;;;;;8.41;100.00;100577.63;10293218;28;20043;-67
2022/11/23 05:18:43;;;;;;;36.13;23.02;;;;;;;8.32;100.00;100520.25;10290889;28;20047;-68
2022/11/23 05:23:44;;;;;;;32.72;21.80;;;;;;;9.47;100.00;100673.22;10295226;28;20463;-68
2022/11/23 05:29:07;;;;;;;25.48;17.40;;;;;;;9.70;100.00;100675.44;10293522;28;20181;-68
2022/11/23 05:34:08;;;;;;;34.35;20.15;;;;;;;9.78;100.00;100672.81;10294793;28;20042;-68
2022/11/23 05:39:09;;;;;;;25.38;17.63;;;;;;;9.41;100.00;100581.03;10293625;28;20039;-68
2022/11/23 05:44:10;;;;;;;188.30;74.03;;;;;;;9.90;100.00;100666.28;10293480;28;20027;-68
2022/11/23 05:49:10;;;;;;;28.08;16.95;;;;;;;9.95;100.00;100663.97;10291761;28;20122;-67
2022/11/23 05:54:11;;;;;;;21.38;13.57;;;;;;;9.99;100.00;100668.00;10291481;28;20114;-68
2022/11/23 05:59:12;;;;;;;26.70;15.43;;;;;;;9.30;100.00;100550.31;10291551;28;20047;-69
2022/11/23 06:04:14;;;;;;;25.33;14.20;;;;;;;10.12;100.00;100680.03;10291011;28;20027;-69
2022/11/23 06:09:14;;;;;;;24.38;14.95;;;;;;;10.14;100.00;100672.72;10291877;28;20027;-68
2022/11/23 06:14:16;;;;;;;33.03;18.95;;;;;;;10.25;100.00;100683.06;10291024;28;20490;-69
2022/11/23 06:19:17;;;;;;;35.08;16.58;;;;;;;9.92;100.00;100627.13;10289397;28;20133;-69
2022/11/23 06:24:19;;;;;;;39.78;19.38;;;;;;;10.19;100.00;100659.81;10291715;28;20047;-69
2022/11/23 06:29:20;;;;;;;24.23;11.93;;;;;;;10.31;100.00;100665.72;10291945;28;20093;-70
2022/11/23 06:34:21;;;;;;;16.88;11.00;;;;;;;10.58;100.00;100701.88;10292846;28;20061;-69
2022/11/23 06:39:22;;;;;;;44.75;17.17;;;;;;;10.51;100.00;100665.31;10292193;28;20035;-69
2022/11/23 06:44:22;;;;;;;19.92;10.70;;;;;;;10.59;100.00;100619.38;10291249;28;20077;-69
2022/11/23 06:49:24;;;;;;;13.70;7.15;;;;;;;10.77;99.52;100631.69;10292148;28;20046;-69
2022/11/23 06:54:25;;;;;;;13.95;6.88;;;;;;;10.92;98.21;100660.13;10286058;28;20050;-70
2022/11/23 06:59:26;;;;;;;12.23;4.97;;;;;;;10.96;95.99;100656.16;10332024;28;20374;-71
2022/11/23 07:04:27;;;;;;;11.20;5.40;;;;;;;10.91;94.88;100642.50;10339270;28;20078;-70
2022/11/23 07:09:28;;;;;;;11.43;3.80;;;;;;;11.10;93.08;100651.22;10340097;28;20485;-69
2022/11/23 07:14:29;;;;;;;8.27;3.00;;;;;;;11.25;90.92;100659.34;10339587;28;20030;-70
2022/11/23 07:19:30;;;;;;;3.80;2.10;;;;;;;11.15;89.19;100662.16;10339316;28;20053;-70
2022/11/23 07:24:30;;;;;;;11.25;4.65;;;;;;;11.30;88.41;100696.94;10339250;28;20401;-69
2022/11/23 07:29:31;;;;;;;5.90;1.83;;;;;;;11.14;86.98;100674.63;10339134;28;20050;-70
2022/11/23 07:34:32;;;;;;;4.40;1.92;;;;;;;11.38;85.52;100702.25;10338489;28;20039;-70
2022/11/23 07:39:33;;;;;;;6.32;3.00;;;;;;;11.31;83.88;100672.84;10337493;28;20034;-70
2022/11/23 07:44:33;;;;;;;5.95;2.50;;;;;;;11.48;82.96;100686.13;10338048;28;20035;-70
2022/11/23 07:49:34;;;;;;;6.75;1.60;;;;;;;11.50;82.11;100679.66;10338108;28;20140;-70
2022/11/23 07:54:44;;;;;;;6.05;1.92;;;;;;;10.66;77.28;100542.50;10324582;28;20042;-70
2022/11/23 07:59:44;;;;;;;4.97;2.97;;;;;;;11.50;80.41;100678.84;10272915;28;20047;-70
2022/11/23 08:04:46;;;;;;;3.08;1.55;;;;;;;11.09;80.23;100593.69;10295972;28;20027;-68
2022/11/23 08:09:46;;;;;;;3.42;0.90;;;;;;;11.64;79.64;100657.72;10295547;28;20046;-70
2022/11/23 08:14:47;;;;;;;3.00;1.30;;;;;;;11.54;79.19;100634.91;10292835;28;20387;-68
2022/11/23 08:19:48;;;;;;;5.00;1.23;;;;;;;11.46;78.75;100643.75;10295144;28;20443;-67
2022/11/23 08:24:49;;;;;;;3.13;1.00;;;;;;;10.88;78.58;100576.38;10294106;28;20109;-68
2022/11/23 08:29:50;;;;;;;2.70;1.05;;;;;;;11.38;78.28;100654.38;10294976;28;20474;-69
2022/11/23 08:34:50;;;;;;;4.75;1.50;;;;;;;11.43;77.85;100647.56;10294352;28;20035;-70
2022/11/23 08:39:53;;;;;;;3.08;1.10;;;;;;;10.56;76.83;100491.31;10295574;28;20142;-70
2022/11/23 08:44:53;;;;;;;2.95;0.90;;;;;;;11.58;76.96;100633.63;10296519;28;20058;-71
2022/11/23 08:49:54;;;;;;;2.97;1.10;;;;;;;11.58;77.12;100639.75;10295247;28;20062;-70
2022/11/23 08:54:55;;;;;;;3.67;1.25;;;;;;;11.64;76.92;100633.75;10294922;28;20042;-69
2022/11/23 08:59:56;;;;;;;9.48;4.60;;;;;;;11.57;77.06;100584.03;10313941;28;20118;-72
2022/11/23 09:04:57;;;;;;;3.72;1.48;;;;;;;11.78;76.76;100602.13;10322038;28;20033;-70
2022/11/23 09:09:57;;;;;;;3.85;0.80;;;;;;;11.72;76.56;100597.47;10334790;28;20445;-70
2022/11/23 09:14:58;;;;;;;7.03;1.20;;;;;;;11.39;76.91;100537.16;10334549;28;20050;-70
2022/11/23 09:19:59;;;;;;;3.08;0.85;;;;;;;11.79;77.12;100596.66;10334892;28;20057;-71
2022/11/23 09:25:00;;;;;;;2.22;0.70;;;;;;;11.65;77.32;100594.69;10333063;28;20040;-70
2022/11/23 09:30:01;;;;;;;7.35;1.75;;;;;;;11.62;77.69;100589.69;10334575;28;20034;-70
2022/11/23 09:35:02;;;;;;;5.97;1.00;;;;;;;11.66;77.46;100572.38;10333855;28;20471;-70
2022/11/23 09:40:04;;;;;;;5.60;2.92;;;;;;;11.13;77.71;100454.13;10334268;28;20026;-70
2022/11/23 09:45:23;;;;;;;5.53;3.20;;;;;;;12.20;75.95;100583.22;10333898;28;20035;-70
2022/11/23 09:50:42;;;;;;;9.18;3.50;;;;;;;12.31;76.82;100579.38;10333384;28;20034;-71
2022/11/23 09:55:47;;;;;;;5.93;1.45;;;;;;;11.63;75.82;100503.53;10333784;28;20038;-71
2022/11/23 10:01:06;;;;;;;16.92;4.70;;;;;;;11.54;73.83;100486.75;10333820;28;20113;-70
2022/11/23 10:06:28;;;;;;;12.98;1.45;;;;;;;12.12;73.36;100574.47;10333609;28;20042;-70
2022/11/23 10:12:06;;;;;;;11.27;5.40;;;;;;;12.17;72.40;100572.91;10332726;28;20036;-70
2022/11/23 10:17:31;;;;;;;7.53;3.38;;;;;;;11.93;72.39;100528.56;10332303;28;20034;-70
2022/11/23 10:22:58;;;;;;;6.25;1.60;;;;;;;12.24;71.98;100557.94;10330216;28;20030;-72
2022/11/23 10:28:05;;;;;;;12.35;5.43;;;;;;;11.91;71.83;100529.78;10316853;28;20399;-68
2022/11/23 10:33:49;;;;;;;6.10;1.73;;;;;;;12.14;70.62;100565.28;10331675;28;20113;-69
2022/11/23 10:38:56;;;;;;;21.00;3.40;;;;;;;11.98;71.38;100565.34;10322570;28;20049;-70
2022/11/23 10:44:25;;;;;;;11.73;2.97;;;;;;;12.08;70.55;100569.47;10332783;28;20026;-71
2022/11/23 10:49:29;;;;;;;5.10;1.90;;;;;;;11.80;72.17;100534.41;10302137;28;20091;-70
2022/11/23 10:54:34;;;;;;;7.53;3.03;;;;;;;11.95;71.38;100541.72;10292223;28;20122;-70
2022/11/23 10:59:37;;;;;;;9.60;2.47;;;;;;;12.06;70.94;100571.47;10291861;28;20463;-70
2022/11/23 11:04:38;;;;;;;2.75;1.17;;;;;;;11.65;72.31;100489.06;10291138;28;20062;-70
2022/11/23 11:09:39;;;;;;;5.03;1.30;;;;;;;12.18;72.45;100563.94;10291545;28;20070;-68
2022/11/23 11:14:55;;;;;;;6.38;1.50;;;;;;;12.22;70.57;100559.09;10292105;28;20030;-69
2022/11/23 11:19:56;;;;;;;7.93;1.67;;;;;;;12.06;72.15;100552.84;10275734;28;20509;-69
2022/11/23 11:24:57;;;;;;;8.05;3.00;;;;;;;12.07;72.38;100537.69;10288699;28;20054;-68
2022/11/23 11:30:19;;;;;;;13.40;1.90;;;;;;;12.23;70.84;100577.56;10290279;28;20043;-66
2022/11/23 11:35:36;;;;;;;7.90;2.00;;;;;;;12.15;72.20;100588.25;10291191;28;20049;-67
2022/11/23 11:41:11;;;;;;;4.95;1.33;;;;;;;12.17;72.34;100588.91;10287697;28;20043;-70
2022/11/23 11:46:15;;;;;;;5.80;1.58;;;;;;;12.14;73.74;100589.25;10284571;28;20061;-70
2022/11/23 11:51:24;;;;;;;12.75;2.33;;;;;;;11.63;73.83;100501.69;10298330;28;20030;-68
2022/11/23 11:56:43;;;;;;;17.10;3.28;;;;;;;12.09;72.78;100587.13;10297525;28;20546;-70
2022/11/23 12:01:56;;;;;;;10.73;2.40;;;;;;;12.08;72.85;100580.13;10297426;28;20034;-68
2022/11/23 12:07:28;;;;;;;8.63;1.70;;;;;;;12.11;73.00;100584.25;10296997;28;20038;-68
2022/11/23 12:12:32;;;;;;;91.05;51.00;;;;;;;11.80;74.50;100546.91;10281394;28;20045;-69
2022/11/23 12:17:59;;;;;;;28.75;13.25;;;;;;;11.84;73.82;100561.53;10296680;28;20082;-68
2022/11/23 12:23:02;;;;;;;17.65;8.30;;;;;;;11.96;74.98;100596.63;10294924;28;20387;-70
2022/11/23 12:28:22;;;;;;;43.83;22.10;;;;;;;11.97;74.96;100600.97;10293940;28;20254;-69
2022/11/23 12:33:41;;;;;;;32.10;14.32;;;;;;;11.93;75.45;100596.97;10292946;28;20375;-70
2022/11/23 12:38:55;;;;;;;78.28;33.72;;;;;;;11.91;74.34;100601.66;10295179;28;20074;-69
2022/11/23 12:43:58;;;;;;;16.73;6.63;;;;;;;11.86;75.29;100586.19;10296875;28;20379;-71
2022/11/23 12:49:43;;;;;;;42.83;16.77;;;;;;;11.91;75.58;100575.84;10292795;28;20047;-70
2022/11/23 12:54:52;;;;;;;13.88;6.90;;;;;;;11.83;76.27;100575.84;10247196;28;20061;-71
2022/11/23 13:00:01;;;;;;;40.92;21.33;;;;;;;11.78;76.44;100588.81;10293105;28;20537;-70
2022/11/23 13:05:38;;;;;;;64.45;37.05;;;;;;;11.73;76.19;100586.69;10294111;28;20092;-70
2022/11/23 13:11:18;;;;;;;133.75;68.15;;;;;;;11.69;76.79;100595.16;10301853;28;20035;-70
2022/11/23 13:16:39;;;;;;;75.85;36.50;;;;;;;11.58;76.95;100589.22;10247866;28;20046;-70
2022/11/23 13:21:43;;;;;;;24.05;11.68;;;;;;;11.49;77.79;100594.72;10292843;28;20098;-70
2022/11/23 13:27:11;;;;;;;19.90;8.27;;;;;;;11.51;79.20;100603.34;10293657;28;20371;-70
2022/11/23 13:32:37;;;;;;;11.43;4.80;;;;;;;11.50;79.31;100601.69;10293854;28;20043;-70
2022/11/23 13:37:56;;;;;;;11.18;4.03;;;;;;;11.43;80.21;100604.19;10279184;28;20043;-70
2022/11/23 13:43:28;;;;;;;9.55;2.60;;;;;;;11.35;79.52;100594.38;10292141;28;20035;-70
2022/11/23 13:48:29;;;;;;;16.40;7.45;;;;;;;10.55;80.10;100497.63;10276365;28;20043;-71
2022/11/23 13:53:39;;;;;;;16.48;7.28;;;;;;;10.63;81.94;100541.00;10283530;28;20043;-70
2022/11/23 13:58:50;;;;;;;20.15;8.43;;;;;;;10.93;82.20;100582.06;10281212;28;20414;-71
2022/11/23 14:03:57;;;;;;;39.65;15.82;;;;;;;10.72;82.52;100571.06;10282159;28;20026;-71
2022/11/23 14:09:13;;;;;;;23.67;10.60;;;;;;;10.95;83.95;100597.84;10288124;28;20035;-71
2022/11/23 14:14:25;;;;;;;22.67;6.57;;;;;;;10.88;83.40;100578.22;10291237;28;20041;-71
2022/11/23 14:20:03;;;;;;;16.10;7.50;;;;;;;10.99;83.66;100588.53;10274235;28;20043;-71
2022/11/23 14:25:41;;;;;;;25.45;10.55;;;;;;;11.05;84.23;100579.91;10282547;28;20047;-71
2022/11/23 14:31:13;;;;;;;16.30;8.00;;;;;;;11.08;84.14;100587.56;10284919;28;20878;-70
2022/11/23 14:36:16;;;;;;;18.95;8.02;;;;;;;11.07;83.72;100585.91;10286883;28;20035;-70
2022/11/23 14:41:21;;;;;;;8.47;4.10;;;;;;;11.09;83.81;100583.88;10285940;28;20062;-70
2022/11/23 14:46:25;;;;;;;18.88;6.32;;;;;;;10.90;83.72;100563.78;10298422;28;20698;-71
2022/11/23 14:51:28;;;;;;;8.70;4.28;;;;;;;11.08;83.67;100587.56;10290592;28;20459;-71
2022/11/23 14:56:35;;;;;;;16.00;7.80;;;;;;;11.02;83.59;100582.91;10290021;28;20082;-71
2022/11/23 15:01:37;;;;;;;8.13;2.78;;;;;;;10.94;83.72;100575.72;10285279;28;20037;-71
2022/11/23 15:06:42;;;;;;;6.63;2.65;;;;;;;10.79;84.01;100569.41;10283402;28;20138;-71
2022/11/23 15:11:43;;;;;;;3.50;1.95;;;;;;;10.87;83.83;100565.94;10291669;28;20038;-71
2022/11/23 15:16:44;;;;;;;4.70;1.80;;;;;;;10.79;84.12;100574.72;10285663;28;20093;-71
2022/11/23 15:21:45;;;;;;;6.10;2.60;;;;;;;10.92;84.09;100593.69;10293797;28;20110;-70
2022/11/23 15:26:46;;;;;;;8.35;2.65;;;;;;;10.91;84.68;100585.88;10298328;28;20129;-71
2022/11/23 15:31:47;;;;;;;11.40;5.00;;;;;;;11.00;85.03;100587.53;10298439;28;20037;-71
2022/11/23 15:36:48;;;;;;;11.30;3.83;;;;;;;11.03;85.17;100599.66;10298215;28;20133;-71
2022/11/23 15:41:51;;;;;;;9.50;2.80;;;;;;;10.57;84.86;100524.88;10296761;28;20089;-70
2022/11/23 15:47:26;;;;;;;5.90;2.45;;;;;;;11.02;85.75;100587.38;10298257;28;20046;-70
2022/11/23 15:52:34;;;;;;;12.10;2.40;;;;;;;10.83;85.57;100578.72;10297214;28;20078;-72
2022/11/23 15:57:36;;;;;;;7.65;2.70;;;;;;;10.84;86.04;100601.66;10297754;28;20057;-69
2022/11/23 16:02:37;;;;;;;5.93;2.65;;;;;;;9.95;85.62;100445.53;10296009;28;20043;-70
2022/11/23 16:07:56;;;;;;;6.78;2.72;;;;;;;10.88;86.85;100608.28;10296365;28;20542;-69
2022/11/23 16:13:02;;;;;;;10.13;3.42;;;;;;;10.93;86.15;100615.78;10293857;28;20125;-71
2022/11/23 16:18:05;;;;;;;12.10;3.38;;;;;;;10.96;85.89;100613.63;10295627;28;20078;-71
2022/11/23 16:23:16;;;;;;;4.65;2.13;;;;;;;10.43;85.17;100513.88;10296705;28;20034;-71
2022/11/23 16:28:26;;;;;;;4.57;2.00;;;;;;;10.85;84.98;100576.72;10294233;28;20045;-71
2022/11/23 16:33:27;;;;;;;7.38;1.92;;;;;;;10.89;84.99;100577.25;10295765;28;20355;-72
2022/11/23 16:38:29;;;;;;;5.55;2.20;;;;;;;10.47;85.46;100523.22;10295153;28;20030;-70
2022/11/23 16:43:30;;;;;;;5.93;2.40;;;;;;;10.71;85.49;100558.78;10296255;28;20475;-70
2022/11/23 16:48:39;;;;;;;6.88;2.63;;;;;;;10.54;85.76;100541.16;10294385;28;20086;-71
2022/11/23 16:53:42;;;;;;;6.25;2.65;;;;;;;10.68;86.35;100583.03;10295102;28;20058;-71
2022/11/23 16:58:43;;;;;;;9.13;2.67;;;;;;;10.09;86.06;100489.22;10296058;28;20030;-71
2022/11/23 17:03:44;;;;;;;5.68;2.50;;;;;;;10.46;86.59;100556.06;10294243;28;20043;-71
2022/11/23 17:08:45;;;;;;;5.47;2.10;;;;;;;10.44;86.73;100568.69;10292148;28;20046;-75
2022/11/23 17:13:47;;;;;;;7.45;2.35;;;;;;;10.47;86.78;100557.72;10292085;28;20376;-71
2022/11/23 17:18:48;;;;;;;4.80;2.00;;;;;;;10.55;87.16;100575.50;10294122;28;20105;-69
2022/11/23 17:24:29;;;;;;;5.03;2.40;;;;;;;10.60;87.34;100562.56;10291426;28;20042;-69
2022/11/23 17:29:29;;;;;;;6.85;2.25;;;;;;;10.43;87.27;100539.63;10294545;28;20038;-70
2022/11/23 17:34:30;;;;;;;6.60;2.50;;;;;;;10.47;86.85;100552.41;10295135;28;20039;-71
2022/11/23 17:45:47;;;;;;;10.82;3.17;;;;;;;10.27;87.54;100537.75;10281863;28;20512;-69
2022/11/23 17:50:47;;;;;;;10.45;3.30;;;;;;;10.17;87.45;100535.22;10293218;28;20039;-69
2022/11/23 17:55:48;;;;;;;7.75;3.35;;;;;;;10.01;87.71;100516.56;10293490;28;20041;-68
2022/11/23 18:00:49;;;;;;;5.30;3.38;;;;;;;9.99;87.83;100537.09;10293769;28;20039;-69
2022/11/23 18:05:50;;;;;;;6.85;3.10;;;;;;;9.87;88.25;100539.22;10293254;28;20160;-69
2022/11/23 18:10:50;;;;;;;11.85;4.15;;;;;;;8.76;88.35;100369.41;10292604;28;20471;-69
2022/11/23 18:15:51;;;;;;;13.82;7.07;;;;;;;9.08;88.92;100442.97;10292314;28;20069;-68
2022/11/23 18:20:52;;;;;;;6.57;4.05;;;;;;;9.50;89.21;100532.38;10291850;28;20058;-69
2022/11/23 18:25:58;;;;;;;5.80;3.60;;;;;;;9.38;89.54;100523.03;10293200;28;20164;-67
2022/11/23 18:30:59;;;;;;;6.53;3.20;;;;;;;9.14;89.63;100490.06;10292014;28;20053;-70
2022/11/23 18:36:00;;;;;;;10.98;3.42;;;;;;;8.82;89.81;100481.84;10291987;28;20113;-70
2022/11/23 18:41:06;;;;;;;5.70;2.90;;;;;;;8.97;90.56;100525.38;10274316;28;20027;-70
2022/11/23 18:46:08;;;;;;;5.72;3.15;;;;;;;7.76;90.23;100344.91;10266439;28;20494;-70
2022/11/23 18:51:12;;;;;;;8.32;3.58;;;;;;;8.58;90.62;100493.91;10288128;28;20039;-70
2022/11/23 18:56:12;;;;;;;13.07;3.60;;;;;;;8.12;90.79;100428.75;10290988;28;20031;-70
2022/11/23 19:01:17;;;;;;;8.90;3.05;;;;;;;8.48;91.48;100503.75;10300426;28;20035;-70
2022/11/23 19:06:19;;;;;;;;;;;;;;;8.48;90.87;100487.84;10300405;28;20035;-70
2022/11/23 19:11:22;;;;;;;9.52;3.70;;;;;;;7.86;91.71;100425.97;10298026;28;19909;-70
2022/11/23 19:16:41;;;;;;;9.80;4.07;;;;;;;8.27;92.88;100508.47;10297684;28;20062;-70
2022/11/23 19:21:41;;;;;;;10.00;3.30;;;;;;;7.71;92.23;100434.41;10299047;28;20050;-70
2022/11/23 19:26:42;;;;;;;7.45;3.67;;;;;;;7.54;92.46;100422.00;10293571;28;20030;-71
2022/11/23 19:31:43;;;;;;;6.93;3.90;;;;;;;7.25;92.76;100388.59;10283451;28;20035;-70
2022/11/23 19:36:44;;;;;;;8.25;3.97;;;;;;;7.81;92.81;100483.75;10294521;28;20063;-70
2022/11/23 19:41:45;;;;;;;8.15;4.22;;;;;;;7.73;93.48;100477.41;10293694;28;20042;-70
2022/11/23 19:53:02;;;;;;;9.40;4.57;;;;;;;7.55;93.79;100490.56;10295470;28;20499;-70
2022/11/23 19:58:43;;;;;;;8.90;4.22;;;;;;;7.61;95.20;100497.09;10297021;28;20038;-70
2022/11/23 20:04:24;;;;;;;12.45;4.30;;;;;;;7.51;94.57;100493.66;10297824;28;20034;-70
2022/11/23 20:09:26;;;;;;;8.20;4.18;;;;;;;7.37;94.36;100499.41;10298824;28;20538;-70
2022/11/23 20:20:42;;;;;;;11.07;4.45;;;;;;;7.22;94.81;100499.00;10297783;28;20047;-70
2022/11/23 20:25:43;;;;;;;7.45;4.45;;;;;;;7.02;94.81;100492.94;10296426;28;20487;-70
2022/11/23 20:30:44;;;;;;;7.40;4.20;;;;;;;7.01;94.59;100500.03;10296268;28;20034;-70
2022/11/23 20:35:46;;;;;;;10.75;4.38;;;;;;;6.98;95.24;100502.94;10296784;28;20031;-69
2022/11/23 20:40:46;;;;;;;10.23;4.88;;;;;;;6.51;94.91;100422.81;10296751;28;20089;-70
2022/11/23 20:45:47;;;;;;;15.35;6.10;;;;;;;6.94;95.51;100500.72;10296162;28;20085;-70
2022/11/23 20:57:04;;;;;;;16.13;5.93;;;;;;;6.71;95.02;100468.50;10294185;28;20042;-70
2022/11/23 21:02:17;;;;;;;12.07;4.90;;;;;;;6.89;95.62;100495.88;10295319;28;20125;-70
2022/11/23 21:07:17;;;;;;;8.63;4.35;;;;;;;6.68;94.80;100482.00;10295451;28;20035;-70
2022/11/23 21:17:37;;;;;;;8.95;4.20;;;;;;;5.84;94.92;100351.41;10294871;28;20062;-69
2022/11/23 21:22:38;;;;;;;9.82;4.38;;;;;;;6.15;94.90;100410.16;10294995;28;20070;-69
2022/11/23 21:27:39;;;;;;;11.05;4.13;;;;;;;6.67;94.99;100507.56;10294138;28;20035;-69
2022/11/23 21:45:08;;;;;;;7.82;3.70;;;;;;;6.37;95.06;100503.19;10291812;28;20440;-70
2022/11/23 21:56:25;;;;;;;10.73;4.00;;;;;;;6.35;95.08;100494.59;10291938;28;20059;-69
2022/11/23 22:01:28;;;;;;;11.27;4.05;;;;;;;6.37;95.12;100504.06;10292911;28;20521;-69
2022/11/23 22:06:29;;;;;;;9.10;4.15;;;;;;;6.25;94.91;100473.50;10293850;28;20383;-69
2022/11/23 22:11:32;;;;;;;8.80;4.65;;;;;;;6.31;94.64;100498.47;10292624;28;20489;-69
2022/11/23 22:16:35;;;;;;;12.38;4.95;;;;;;;6.23;94.88;100480.69;10293351;28;20034;-69
2022/11/23 22:21:38;;;;;;;11.70;4.78;;;;;;;6.28;94.51;100489.06;10292240;28;20133;-69
2022/11/23 22:26:39;;;;;;;8.98;4.38;;;;;;;6.18;94.63;100482.91;10292176;28;20043;-69
2022/11/23 22:31:40;;;;;;;10.27;5.00;;;;;;;6.05;94.82;100477.06;10290248;28;20046;-69
2022/11/23 22:36:59;;;;;;;6.43;3.70;;;;;;;5.96;94.54;100493.69;10291306;28;20049;-69
2022/11/23 22:41:59;;;;;;;7.68;3.42;;;;;;;4.93;94.87;100352.38;10291671;28;20038;-69
2022/11/23 22:53:16;;;;;;;6.28;2.92;;;;;;;5.90;95.54;100501.13;10290257;28;20043;-69
2022/11/23 22:59:03;;;;;;;5.22;2.58;;;;;;;5.91;95.22;100505.44;10291378;28;20383;-69
2022/11/23 23:10:21;;;;;;;5.43;2.67;;;;;;;5.64;95.06;100499.91;10291808;28;20133;-69
2022/11/23 23:15:22;;;;;;;6.72;3.10;;;;;;;5.34;95.25;100483.13;10291771;28;20034;-69
2022/11/23 23:20:23;;;;;;;5.47;2.83;;;;;;;4.67;95.87;100425.66;10284054;28;20054;-69
2022/11/23 23:25:24;;;;;;;7.43;4.57;;;;;;;4.83;96.81;100489.19;10291052;28;20030;-69
2022/11/23 23:30:25;;;;;;;7.65;3.70;;;;;;;4.76;96.84;100496.78;10290011;28;20045;-70
2022/11/23 23:35:26;;;;;;;12.18;4.07;;;;;;;4.81;96.79;100485.84;10291072;28;20045;-69
2022/11/23 23:40:27;;;;;;;9.63;3.85;;;;;;;4.67;97.06;100451.97;10290664;28;20038;-69
2022/11/23 23:51:43;;;;;;;10.82;4.40;;;;;;;4.05;97.19;100417.53;10298705;28;20424;-69
2022/11/23 23:56:44;;;;;;;6.30;3.28;;;;;;;4.46;97.90;100475.63;10296423;28;20066;-69
